Main page
METAR-TAF:

METAR-TAF

Airports :

Aurillac, France

Aurillac – Tronquières Airport

latitude: 44-53N, longitude: 002-25E, elevation: 639 m

Current weather observation

The report was made 40 minutes ago, at 01:30 UTC
Wind 9 kt from the East
Temperature 16°C
Humidity 51%
Pressure 1017 hPa
Visibility 10 km or more
no clouds below 1500 m and no cumulonimbus

METAR: LFLW 290130Z AUTO 10009KT CAVOK 16/06 Q1017

Time: 04:10 (02:10 UTC)

Forecast

The report was made 12 hours and 10 minutes ago, at 14:00 UTC
Forecast valid from 28 at 15 UTC to 28 at 24 UTC
Wind 10 kt from the South/Southeast with gusts up to 20 kt
Visibility 10 km or more
no clouds below 1500 m and no cumulonimbus
Becoming
from 28 at 16 UTC to 28 at 19 UTC
Wind 8 kt from the South/Southeast

TAF: LFLW 281400Z 2815/2824 15010G20KT CAVOK BECMG 2816/2819 15008KT

Weather observations and forecasts of more than 4000 airports (METAR and TAF reports).

The available stations are represented by yellow and red dots on the map.

Hover mouse over dot to see the name of the station.

Then click to see weather observations and forecasts.

To change the map : click on the green buttons with a black cross to zoom in, on the green button with a dash to zoom out, or on the green arrows for adjacent maps.


METAR-TAF: